Weather at Anduki Airport

Public forecast

Using degrees Celsius for public forecast. Weather courtesy of forecast.io.

Closest aviation weather report (METAR) to Anduki Airport

Closest report is Miri Airport, 30.3 nm (56.1 km) SW. Retrieved 2022/01/16 09:00 UTC (43 minutes ago):

WBGR 160900Z 02007KT 320V070 9999 SCT014 28/24 Q1008

Closest aviation forecast (TAF) to Anduki Airport

Closest forecast is Miri Airport, 30.3 nm (56.1 km) SW. Retrieved 2022/01/16 06:00 UTC (4 hours ago):

TAF WBGR 160500Z 1606/1706 01007KT 9999 SCT016